sensor_id;sensor_type;location;lat;lon;timestamp;pressure;altitude;pressure_sealevel;temperature
20736;BMP180;10528;52.124;5.196;2022-07-17T00:00:24;102708.00;;;22.10
20736;BMP180;10528;52.124;5.196;2022-07-17T00:02:51;102706.00;;;22.10
20736;BMP180;10528;52.124;5.196;2022-07-17T00:05:19;102705.00;;;22.00
20736;BMP180;10528;52.124;5.196;2022-07-17T00:07:46;102703.00;;;22.00
20736;BMP180;10528;52.124;5.196;2022-07-17T00:10:15;102700.00;;;22.00
20736;BMP180;10528;52.124;5.196;2022-07-17T00:12:43;102703.00;;;21.90
20736;BMP180;10528;52.124;5.196;2022-07-17T00:15:11;102709.00;;;21.90
20736;BMP180;10528;52.124;5.196;2022-07-17T00:17:38;102699.00;;;21.90
20736;BMP180;10528;52.124;5.196;2022-07-17T00:20:07;102709.00;;;21.80
20736;BMP180;10528;52.124;5.196;2022-07-17T00:22:35;102705.00;;;21.80
20736;BMP180;10528;52.124;5.196;2022-07-17T00:25:04;102707.00;;;21.80
20736;BMP180;10528;52.124;5.196;2022-07-17T00:27:31;102711.00;;;21.80
20736;BMP180;10528;52.124;5.196;2022-07-17T00:29:58;102719.00;;;21.80
20736;BMP180;10528;52.124;5.196;2022-07-17T00:32:26;102715.00;;;21.70
20736;BMP180;10528;52.124;5.196;2022-07-17T00:34:53;102717.00;;;21.70
20736;BMP180;10528;52.124;5.196;2022-07-17T00:37:20;102709.00;;;21.70
20736;BMP180;10528;52.124;5.196;2022-07-17T00:39:47;102707.00;;;21.70
20736;BMP180;10528;52.124;5.196;2022-07-17T00:42:16;102707.00;;;21.60
20736;BMP180;10528;52.124;5.196;2022-07-17T00:44:44;102707.00;;;21.60
20736;BMP180;10528;52.124;5.196;2022-07-17T00:47:17;102708.00;;;21.50
20736;BMP180;10528;52.124;5.196;2022-07-17T00:49:47;102707.00;;;21.50
20736;BMP180;10528;52.124;5.196;2022-07-17T00:52:17;102708.00;;;21.50
20736;BMP180;10528;52.124;5.196;2022-07-17T00:54:46;102712.00;;;21.40
20736;BMP180;10528;52.124;5.196;2022-07-17T00:57:31;102712.00;;;21.40
20736;BMP180;10528;52.124;5.196;2022-07-17T00:59:59;102705.00;;;21.40
20736;BMP180;10528;52.124;5.196;2022-07-17T01:02:26;102707.00;;;21.40
20736;BMP180;10528;52.124;5.196;2022-07-17T01:04:52;102701.00;;;21.30
20736;BMP180;10528;52.124;5.196;2022-07-17T01:07:19;102707.00;;;21.30
20736;BMP180;10528;52.124;5.196;2022-07-17T01:09:46;102702.00;;;21.30
20736;BMP180;10528;52.124;5.196;2022-07-17T01:12:14;102708.00;;;21.30
20736;BMP180;10528;52.124;5.196;2022-07-17T01:14:41;102704.00;;;21.30
20736;BMP180;10528;52.124;5.196;2022-07-17T01:17:08;102713.00;;;21.20
20736;BMP180;10528;52.124;5.196;2022-07-17T01:19:35;102703.00;;;21.20
20736;BMP180;10528;52.124;5.196;2022-07-17T01:22:02;102704.00;;;21.20
20736;BMP180;10528;52.124;5.196;2022-07-17T01:24:29;102703.00;;;21.20
20736;BMP180;10528;52.124;5.196;2022-07-17T01:26:56;102701.00;;;21.10
20736;BMP180;10528;52.124;5.196;2022-07-17T01:29:23;102701.00;;;21.10
20736;BMP180;10528;52.124;5.196;2022-07-17T01:31:50;102684.00;;;21.10
20736;BMP180;10528;52.124;5.196;2022-07-17T01:34:17;102693.00;;;21.10
20736;BMP180;10528;52.124;5.196;2022-07-17T01:36:44;102698.00;;;21.10
20736;BMP180;10528;52.124;5.196;2022-07-17T01:39:11;102678.00;;;21.00
20736;BMP180;10528;52.124;5.196;2022-07-17T01:41:38;102686.00;;;21.00
20736;BMP180;10528;52.124;5.196;2022-07-17T01:44:05;102674.00;;;21.00
20736;BMP180;10528;52.124;5.196;2022-07-17T01:46:33;102672.00;;;20.90
20736;BMP180;10528;52.124;5.196;2022-07-17T01:49:00;102676.00;;;20.90
20736;BMP180;10528;52.124;5.196;2022-07-17T01:51:30;102682.00;;;20.90
20736;BMP180;10528;52.124;5.196;2022-07-17T01:53:58;102692.00;;;20.90
20736;BMP180;10528;52.124;5.196;2022-07-17T01:56:25;102680.00;;;20.80
20736;BMP180;10528;52.124;5.196;2022-07-17T01:58:52;102677.00;;;20.80
20736;BMP180;10528;52.124;5.196;2022-07-17T02:01:19;102693.00;;;20.80
20736;BMP180;10528;52.124;5.196;2022-07-17T02:03:46;102686.00;;;20.80
20736;BMP180;10528;52.124;5.196;2022-07-17T02:06:13;102681.00;;;20.70
20736;BMP180;10528;52.124;5.196;2022-07-17T02:08:40;102685.00;;;20.70
20736;BMP180;10528;52.124;5.196;2022-07-17T02:11:07;102684.00;;;20.70
20736;BMP180;10528;52.124;5.196;2022-07-17T02:13:34;102687.00;;;20.60
20736;BMP180;10528;52.124;5.196;2022-07-17T02:16:02;102677.00;;;20.60
20736;BMP180;10528;52.124;5.196;2022-07-17T02:18:29;102686.00;;;20.60
20736;BMP180;10528;52.124;5.196;2022-07-17T02:20:56;102679.00;;;20.60
20736;BMP180;10528;52.124;5.196;2022-07-17T02:23:23;102678.00;;;20.50
20736;BMP180;10528;52.124;5.196;2022-07-17T02:25:49;102691.00;;;20.50
20736;BMP180;10528;52.124;5.196;2022-07-17T02:28:17;102689.00;;;20.50
20736;BMP180;10528;52.124;5.196;2022-07-17T02:30:45;102691.00;;;20.50
20736;BMP180;10528;52.124;5.196;2022-07-17T02:33:12;102700.00;;;20.40
20736;BMP180;10528;52.124;5.196;2022-07-17T02:35:40;102705.00;;;20.40
20736;BMP180;10528;52.124;5.196;2022-07-17T02:38:07;102708.00;;;20.40
20736;BMP180;10528;52.124;5.196;2022-07-17T02:40:34;102708.00;;;20.40
20736;BMP180;10528;52.124;5.196;2022-07-17T02:43:01;102708.00;;;20.40
20736;BMP180;10528;52.124;5.196;2022-07-17T02:45:27;102702.00;;;20.30
20736;BMP180;10528;52.124;5.196;2022-07-17T02:47:55;102699.00;;;20.30
20736;BMP180;10528;52.124;5.196;2022-07-17T02:50:22;102696.00;;;20.30
20736;BMP180;10528;52.124;5.196;2022-07-17T02:52:49;102695.00;;;20.30
20736;BMP180;10528;52.124;5.196;2022-07-17T02:55:17;102692.00;;;20.20
20736;BMP180;10528;52.124;5.196;2022-07-17T02:57:44;102695.00;;;20.20
20736;BMP180;10528;52.124;5.196;2022-07-17T03:00:16;102693.00;;;20.20
20736;BMP180;10528;52.124;5.196;2022-07-17T03:02:45;102688.00;;;20.20
20736;BMP180;10528;52.124;5.196;2022-07-17T03:05:15;102687.00;;;20.20
20736;BMP180;10528;52.124;5.196;2022-07-17T03:07:42;102683.00;;;20.10
20736;BMP180;10528;52.124;5.196;2022-07-17T03:10:11;102690.00;;;20.10
20736;BMP180;10528;52.124;5.196;2022-07-17T03:12:39;102695.00;;;20.10
20736;BMP180;10528;52.124;5.196;2022-07-17T03:15:07;102697.00;;;20.10
20736;BMP180;10528;52.124;5.196;2022-07-17T03:17:35;102695.00;;;20.10
20736;BMP180;10528;52.124;5.196;2022-07-17T03:20:02;102700.00;;;20.00
20736;BMP180;10528;52.124;5.196;2022-07-17T03:22:29;102700.00;;;20.00
20736;BMP180;10528;52.124;5.196;2022-07-17T03:24:56;102703.00;;;20.00
20736;BMP180;10528;52.124;5.196;2022-07-17T03:27:23;102697.00;;;20.00
20736;BMP180;10528;52.124;5.196;2022-07-17T03:29:50;102709.00;;;20.00
20736;BMP180;10528;52.124;5.196;2022-07-17T03:32:17;102715.00;;;20.00
20736;BMP180;10528;52.124;5.196;2022-07-17T03:34:44;102716.00;;;20.00
20736;BMP180;10528;52.124;5.196;2022-07-17T03:37:11;102702.00;;;19.90
20736;BMP180;10528;52.124;5.196;2022-07-17T03:39:38;102709.00;;;19.90
20736;BMP180;10528;52.124;5.196;2022-07-17T03:42:05;102700.00;;;19.90
20736;BMP180;10528;52.124;5.196;2022-07-17T03:44:32;102691.00;;;19.90
20736;BMP180;10528;52.124;5.196;2022-07-17T03:46:59;102705.00;;;19.90
20736;BMP180;10528;52.124;5.196;2022-07-17T03:49:26;102704.00;;;19.90
20736;BMP180;10528;52.124;5.196;2022-07-17T03:51:53;102708.00;;;19.90
20736;BMP180;10528;52.124;5.196;2022-07-17T03:54:20;102716.00;;;19.90
20736;BMP180;10528;52.124;5.196;2022-07-17T03:56:47;102716.00;;;19.90
20736;BMP180;10528;52.124;5.196;2022-07-17T03:59:13;102714.00;;;19.90
20736;BMP180;10528;52.124;5.196;2022-07-17T04:01:40;102711.00;;;19.90
20736;BMP180;10528;52.124;5.196;2022-07-17T04:04:07;102709.00;;;19.90
20736;BMP180;10528;52.124;5.196;2022-07-17T04:06:34;102717.00;;;19.90
20736;BMP180;10528;52.124;5.196;2022-07-17T04:09:03;102717.00;;;19.90
20736;BMP180;10528;52.124;5.196;2022-07-17T04:11:30;102715.00;;;19.90
20736;BMP180;10528;52.124;5.196;2022-07-17T04:13:57;102727.00;;;19.90
20736;BMP180;10528;52.124;5.196;2022-07-17T04:16:24;102736.00;;;19.90
20736;BMP180;10528;52.124;5.196;2022-07-17T04:18:51;102731.00;;;19.90
20736;BMP180;10528;52.124;5.196;2022-07-17T04:21:19;102723.00;;;19.90
20736;BMP180;10528;52.124;5.196;2022-07-17T04:23:46;102723.00;;;19.90
20736;BMP180;10528;52.124;5.196;2022-07-17T04:26:12;102725.00;;;19.90
20736;BMP180;10528;52.124;5.196;2022-07-17T04:28:40;102722.00;;;20.00
20736;BMP180;10528;52.124;5.196;2022-07-17T04:31:07;102721.00;;;20.00
20736;BMP180;10528;52.124;5.196;2022-07-17T04:33:34;102719.00;;;20.00
20736;BMP180;10528;52.124;5.196;2022-07-17T04:36:01;102731.00;;;20.00
20736;BMP180;10528;52.124;5.196;2022-07-17T04:38:28;102738.00;;;20.00
20736;BMP180;10528;52.124;5.196;2022-07-17T04:40:56;102736.00;;;20.00
20736;BMP180;10528;52.124;5.196;2022-07-17T04:43:23;102729.00;;;20.00
20736;BMP180;10528;52.124;5.196;2022-07-17T04:45:50;102726.00;;;20.00
20736;BMP180;10528;52.124;5.196;2022-07-17T04:48:17;102713.00;;;20.00
20736;BMP180;10528;52.124;5.196;2022-07-17T04:50:44;102706.00;;;20.10
20736;BMP180;10528;52.124;5.196;2022-07-17T04:53:11;102700.00;;;20.10
20736;BMP180;10528;52.124;5.196;2022-07-17T04:55:38;102701.00;;;20.10
20736;BMP180;10528;52.124;5.196;2022-07-17T04:58:05;102700.00;;;20.10
20736;BMP180;10528;52.124;5.196;2022-07-17T05:00:32;102704.00;;;20.20
20736;BMP180;10528;52.124;5.196;2022-07-17T05:02:59;102705.00;;;20.20
20736;BMP180;10528;52.124;5.196;2022-07-17T05:05:26;102705.00;;;20.30
20736;BMP180;10528;52.124;5.196;2022-07-17T05:07:53;102701.00;;;20.30
20736;BMP180;10528;52.124;5.196;2022-07-17T05:10:20;102714.00;;;20.40
20736;BMP180;10528;52.124;5.196;2022-07-17T05:12:54;102711.00;;;20.50
20736;BMP180;10528;52.124;5.196;2022-07-17T05:15:21;102702.00;;;20.50
20736;BMP180;10528;52.124;5.196;2022-07-17T05:17:48;102696.00;;;20.60
20736;BMP180;10528;52.124;5.196;2022-07-17T05:20:15;102688.00;;;20.70
20736;BMP180;10528;52.124;5.196;2022-07-17T05:22:42;102697.00;;;20.80
20736;BMP180;10528;52.124;5.196;2022-07-17T05:25:09;102676.00;;;20.90
20736;BMP180;10528;52.124;5.196;2022-07-17T05:27:36;102690.00;;;21.00
20736;BMP180;10528;52.124;5.196;2022-07-17T05:30:04;102688.00;;;21.10
20736;BMP180;10528;52.124;5.196;2022-07-17T05:32:30;102700.00;;;21.30
20736;BMP180;10528;52.124;5.196;2022-07-17T05:34:57;102700.00;;;21.40
20736;BMP180;10528;52.124;5.196;2022-07-17T05:37:24;102702.00;;;21.60
20736;BMP180;10528;52.124;5.196;2022-07-17T05:39:51;102706.00;;;21.80
20736;BMP180;10528;52.124;5.196;2022-07-17T05:42:18;102705.00;;;22.20
20736;BMP180;10528;52.124;5.196;2022-07-17T05:44:45;102719.00;;;22.70
20736;BMP180;10528;52.124;5.196;2022-07-17T05:47:12;102715.00;;;23.10
20736;BMP180;10528;52.124;5.196;2022-07-17T05:49:39;102719.00;;;23.40
20736;BMP180;10528;52.124;5.196;2022-07-17T05:52:06;102715.00;;;23.70
20736;BMP180;10528;52.124;5.196;2022-07-17T05:54:33;102720.00;;;24.00
20736;BMP180;10528;52.124;5.196;2022-07-17T05:57:01;102725.00;;;24.60
20736;BMP180;10528;52.124;5.196;2022-07-17T05:59:36;102724.00;;;25.30
20736;BMP180;10528;52.124;5.196;2022-07-17T06:02:03;102722.00;;;26.00
20736;BMP180;10528;52.124;5.196;2022-07-17T06:04:31;102727.00;;;26.80
20736;BMP180;10528;52.124;5.196;2022-07-17T06:06:58;102738.00;;;27.60
20736;BMP180;10528;52.124;5.196;2022-07-17T06:09:25;102750.00;;;28.30
20736;BMP180;10528;52.124;5.196;2022-07-17T06:11:52;102760.00;;;29.00
20736;BMP180;10528;52.124;5.196;2022-07-17T06:14:19;102764.00;;;29.60
20736;BMP180;10528;52.124;5.196;2022-07-17T06:16:45;102768.00;;;30.10
20736;BMP180;10528;52.124;5.196;2022-07-17T06:19:13;102752.00;;;30.60
20736;BMP180;10528;52.124;5.196;2022-07-17T06:21:40;102776.00;;;31.00
20736;BMP180;10528;52.124;5.196;2022-07-17T06:24:06;102770.00;;;31.40
20736;BMP180;10528;52.124;5.196;2022-07-17T06:26:33;102772.00;;;31.70
20736;BMP180;10528;52.124;5.196;2022-07-17T06:29:00;102782.00;;;31.90
20736;BMP180;10528;52.124;5.196;2022-07-17T06:31:27;102777.00;;;32.00
20736;BMP180;10528;52.124;5.196;2022-07-17T06:33:54;102789.00;;;32.10
20736;BMP180;10528;52.124;5.196;2022-07-17T06:36:21;102793.00;;;32.00
20736;BMP180;10528;52.124;5.196;2022-07-17T06:38:48;102791.00;;;31.80
20736;BMP180;10528;52.124;5.196;2022-07-17T06:41:15;102789.00;;;31.70
20736;BMP180;10528;52.124;5.196;2022-07-17T06:43:42;102787.00;;;31.50
20736;BMP180;10528;52.124;5.196;2022-07-17T06:46:09;102792.00;;;31.30
20736;BMP180;10528;52.124;5.196;2022-07-17T06:48:36;102786.00;;;31.10
20736;BMP180;10528;52.124;5.196;2022-07-17T06:51:02;102784.00;;;31.00
20736;BMP180;10528;52.124;5.196;2022-07-17T06:53:29;102788.00;;;30.90
20736;BMP180;10528;52.124;5.196;2022-07-17T06:55:56;102805.00;;;30.80
20736;BMP180;10528;52.124;5.196;2022-07-17T06:58:23;102803.00;;;30.60
20736;BMP180;10528;52.124;5.196;2022-07-17T07:00:50;102803.00;;;30.50
20736;BMP180;10528;52.124;5.196;2022-07-17T07:03:17;102798.00;;;30.40
20736;BMP180;10528;52.124;5.196;2022-07-17T07:05:44;102788.00;;;30.30
20736;BMP180;10528;52.124;5.196;2022-07-17T07:08:10;102781.00;;;30.50
20736;BMP180;10528;52.124;5.196;2022-07-17T07:10:37;102782.00;;;30.80
20736;BMP180;10528;52.124;5.196;2022-07-17T07:13:04;102787.00;;;31.30
20736;BMP180;10528;52.124;5.196;2022-07-17T07:15:31;102797.00;;;31.80
20736;BMP180;10528;52.124;5.196;2022-07-17T07:17:58;102802.00;;;32.30
20736;BMP180;10528;52.124;5.196;2022-07-17T07:20:26;102793.00;;;32.80
20736;BMP180;10528;52.124;5.196;2022-07-17T07:22:53;102792.00;;;33.20
20736;BMP180;10528;52.124;5.196;2022-07-17T07:25:22;102794.00;;;33.40
20736;BMP180;10528;52.124;5.196;2022-07-17T07:27:49;102793.00;;;33.30
20736;BMP180;10528;52.124;5.196;2022-07-17T07:30:17;102794.00;;;33.10
20736;BMP180;10528;52.124;5.196;2022-07-17T07:32:44;102797.00;;;32.90
20736;BMP180;10528;52.124;5.196;2022-07-17T07:35:11;102804.00;;;32.70
20736;BMP180;10528;52.124;5.196;2022-07-17T07:37:38;102800.00;;;32.70
20736;BMP180;10528;52.124;5.196;2022-07-17T07:40:06;102807.00;;;32.90
20736;BMP180;10528;52.124;5.196;2022-07-17T07:42:33;102799.00;;;33.10
20736;BMP180;10528;52.124;5.196;2022-07-17T07:45:00;102806.00;;;33.20
20736;BMP180;10528;52.124;5.196;2022-07-17T07:47:27;102810.00;;;33.30
20736;BMP180;10528;52.124;5.196;2022-07-17T07:49:54;102811.00;;;33.50
20736;BMP180;10528;52.124;5.196;2022-07-17T07:52:21;102808.00;;;33.50
20736;BMP180;10528;52.124;5.196;2022-07-17T07:54:48;102807.00;;;33.40
20736;BMP180;10528;52.124;5.196;2022-07-17T07:57:15;102807.00;;;33.30
20736;BMP180;10528;52.124;5.196;2022-07-17T07:59:42;102810.00;;;33.20
20736;BMP180;10528;52.124;5.196;2022-07-17T08:02:09;102798.00;;;33.10
20736;BMP180;10528;52.124;5.196;2022-07-17T08:04:36;102809.00;;;32.90
20736;BMP180;10528;52.124;5.196;2022-07-17T08:07:03;102797.00;;;32.90
20736;BMP180;10528;52.124;5.196;2022-07-17T08:09:30;102794.00;;;33.10
20736;BMP180;10528;52.124;5.196;2022-07-17T08:11:57;102806.00;;;33.20
20736;BMP180;10528;52.124;5.196;2022-07-17T08:14:23;102807.00;;;33.40
20736;BMP180;10528;52.124;5.196;2022-07-17T08:16:50;102795.00;;;33.30
20736;BMP180;10528;52.124;5.196;2022-07-17T08:19:18;102801.00;;;33.20
20736;BMP180;10528;52.124;5.196;2022-07-17T08:21:44;102786.00;;;33.00
20736;BMP180;10528;52.124;5.196;2022-07-17T08:24:11;102793.00;;;33.10
20736;BMP180;10528;52.124;5.196;2022-07-17T08:26:38;102792.00;;;33.20
20736;BMP180;10528;52.124;5.196;2022-07-17T08:29:05;102793.00;;;33.40
20736;BMP180;10528;52.124;5.196;2022-07-17T08:31:32;102783.00;;;33.50
20736;BMP180;10528;52.124;5.196;2022-07-17T08:34:00;102799.00;;;33.60
20736;BMP180;10528;52.124;5.196;2022-07-17T08:36:28;102790.00;;;33.60
20736;BMP180;10528;52.124;5.196;2022-07-17T08:38:56;102791.00;;;33.40
20736;BMP180;10528;52.124;5.196;2022-07-17T08:41:25;102800.00;;;33.20
20736;BMP180;10528;52.124;5.196;2022-07-17T08:43:52;102793.00;;;33.10
20736;BMP180;10528;52.124;5.196;2022-07-17T08:46:24;102794.00;;;33.00
20736;BMP180;10528;52.124;5.196;2022-07-17T08:48:57;102791.00;;;32.90
20736;BMP180;10528;52.124;5.196;2022-07-17T08:51:30;102791.00;;;32.70
20736;BMP180;10528;52.124;5.196;2022-07-17T08:53:58;102780.00;;;32.50
20736;BMP180;10528;52.124;5.196;2022-07-17T08:56:26;102784.00;;;32.20
20736;BMP180;10528;52.124;5.196;2022-07-17T08:58:54;102771.00;;;32.00
20736;BMP180;10528;52.124;5.196;2022-07-17T09:01:23;102782.00;;;31.90
20736;BMP180;10528;52.124;5.196;2022-07-17T09:04:01;102779.00;;;31.70
20736;BMP180;10528;52.124;5.196;2022-07-17T09:06:34;102777.00;;;31.50
20736;BMP180;10528;52.124;5.196;2022-07-17T09:09:06;102783.00;;;31.40
20736;BMP180;10528;52.124;5.196;2022-07-17T09:11:51;102780.00;;;31.30
20736;BMP180;10528;52.124;5.196;2022-07-17T09:14:20;102771.00;;;31.10
20736;BMP180;10528;52.124;5.196;2022-07-17T09:16:53;102777.00;;;31.00
20736;BMP180;10528;52.124;5.196;2022-07-17T09:19:43;102781.00;;;30.80
20736;BMP180;10528;52.124;5.196;2022-07-17T09:22:22;102777.00;;;30.70
20736;BMP180;10528;52.124;5.196;2022-07-17T09:27:31;102776.00;;;30.40
20736;BMP180;10528;52.124;5.196;2022-07-17T09:30:08;102780.00;;;30.30
20736;BMP180;10528;52.124;5.196;2022-07-17T09:32:41;102783.00;;;30.30
20736;BMP180;10528;52.124;5.196;2022-07-17T09:35:10;102790.00;;;30.30
20736;BMP180;10528;52.124;5.196;2022-07-17T09:37:38;102784.00;;;30.30
20736;BMP180;10528;52.124;5.196;2022-07-17T09:40:14;102799.00;;;30.30
20736;BMP180;10528;52.124;5.196;2022-07-17T09:43:02;102786.00;;;30.30
20736;BMP180;10528;52.124;5.196;2022-07-17T09:45:32;102781.00;;;30.30
20736;BMP180;10528;52.124;5.196;2022-07-17T09:48:00;102769.00;;;30.30
20736;BMP180;10528;52.124;5.196;2022-07-17T09:50:28;102767.00;;;30.30
20736;BMP180;10528;52.124;5.196;2022-07-17T09:53:00;102770.00;;;30.20
20736;BMP180;10528;52.124;5.196;2022-07-17T09:55:31;102771.00;;;30.30
20736;BMP180;10528;52.124;5.196;2022-07-17T09:58:16;102764.00;;;30.20
20736;BMP180;10528;52.124;5.196;2022-07-17T10:00:47;102775.00;;;30.30
20736;BMP180;10528;52.124;5.196;2022-07-17T10:03:18;102774.00;;;30.30
20736;BMP180;10528;52.124;5.196;2022-07-17T10:05:46;102773.00;;;30.30
20736;BMP180;10528;52.124;5.196;2022-07-17T10:08:13;102773.00;;;30.30
20736;BMP180;10528;52.124;5.196;2022-07-17T10:10:40;102763.00;;;30.30
20736;BMP180;10528;52.124;5.196;2022-07-17T10:13:08;102759.00;;;30.40
20736;BMP180;10528;52.124;5.196;2022-07-17T10:15:35;102766.00;;;30.40
20736;BMP180;10528;52.124;5.196;2022-07-17T10:18:05;102764.00;;;30.40
20736;BMP180;10528;52.124;5.196;2022-07-17T10:20:32;102759.00;;;30.40
20736;BMP180;10528;52.124;5.196;2022-07-17T10:23:13;102757.00;;;30.40
20736;BMP180;10528;52.124;5.196;2022-07-17T10:25:41;102766.00;;;30.40
20736;BMP180;10528;52.124;5.196;2022-07-17T10:28:09;102769.00;;;30.50
20736;BMP180;10528;52.124;5.196;2022-07-17T10:30:42;102769.00;;;30.50
20736;BMP180;10528;52.124;5.196;2022-07-17T10:33:16;102774.00;;;30.50
20736;BMP180;10528;52.124;5.196;2022-07-17T10:35:48;102773.00;;;30.50
20736;BMP180;10528;52.124;5.196;2022-07-17T10:38:15;102773.00;;;30.50
20736;BMP180;10528;52.124;5.196;2022-07-17T10:40:43;102768.00;;;30.40
20736;BMP180;10528;52.124;5.196;2022-07-17T10:43:10;102760.00;;;30.40
20736;BMP180;10528;52.124;5.196;2022-07-17T10:45:42;102773.00;;;30.40
20736;BMP180;10528;52.124;5.196;2022-07-17T10:48:14;102761.00;;;30.40
20736;BMP180;10528;52.124;5.196;2022-07-17T10:50:52;102756.00;;;30.40
20736;BMP180;10528;52.124;5.196;2022-07-17T10:53:27;102760.00;;;30.50
20736;BMP180;10528;52.124;5.196;2022-07-17T10:56:04;102761.00;;;30.50
20736;BMP180;10528;52.124;5.196;2022-07-17T10:58:35;102769.00;;;30.50
20736;BMP180;10528;52.124;5.196;2022-07-17T11:01:16;102765.00;;;30.50
20736;BMP180;10528;52.124;5.196;2022-07-17T11:03:47;102776.00;;;30.50
20736;BMP180;10528;52.124;5.196;2022-07-17T11:06:21;102770.00;;;30.50
20736;BMP180;10528;52.124;5.196;2022-07-17T11:08:54;102781.00;;;30.60
20736;BMP180;10528;52.124;5.196;2022-07-17T11:11:37;102785.00;;;30.60
20736;BMP180;10528;52.124;5.196;2022-07-17T11:14:20;102774.00;;;30.60
20736;BMP180;10528;52.124;5.196;2022-07-17T11:16:59;102776.00;;;30.70
20736;BMP180;10528;52.124;5.196;2022-07-17T11:19:39;102773.00;;;30.70
20736;BMP180;10528;52.124;5.196;2022-07-17T11:22:10;102782.00;;;30.70
20736;BMP180;10528;52.124;5.196;2022-07-17T11:24:38;102775.00;;;30.70
20736;BMP180;10528;52.124;5.196;2022-07-17T11:27:06;102779.00;;;30.70
20736;BMP180;10528;52.124;5.196;2022-07-17T11:29:37;102770.00;;;30.70
20736;BMP180;10528;52.124;5.196;2022-07-17T11:32:05;102762.00;;;30.80
20736;BMP180;10528;52.124;5.196;2022-07-17T11:34:32;102775.00;;;30.80
20736;BMP180;10528;52.124;5.196;2022-07-17T11:37:01;102766.00;;;30.90
20736;BMP180;10528;52.124;5.196;2022-07-17T11:42:08;102766.00;;;31.00
20736;BMP180;10528;52.124;5.196;2022-07-17T11:44:36;102759.00;;;31.00
20736;BMP180;10528;52.124;5.196;2022-07-17T11:47:04;102758.00;;;31.10
20736;BMP180;10528;52.124;5.196;2022-07-17T11:49:36;102752.00;;;31.10
20736;BMP180;10528;52.124;5.196;2022-07-17T11:52:12;102759.00;;;31.10
20736;BMP180;10528;52.124;5.196;2022-07-17T11:54:55;102747.00;;;31.10
20736;BMP180;10528;52.124;5.196;2022-07-17T11:57:26;102755.00;;;31.10
20736;BMP180;10528;52.124;5.196;2022-07-17T12:00:06;102758.00;;;31.10
20736;BMP180;10528;52.124;5.196;2022-07-17T12:02:35;102742.00;;;31.20
20736;BMP180;10528;52.124;5.196;2022-07-17T12:05:02;102753.00;;;31.20
20736;BMP180;10528;52.124;5.196;2022-07-17T12:07:47;102745.00;;;31.20
20736;BMP180;10528;52.124;5.196;2022-07-17T12:10:25;102744.00;;;31.20
20736;BMP180;10528;52.124;5.196;2022-07-17T12:13:04;102747.00;;;31.20
20736;BMP180;10528;52.124;5.196;2022-07-17T12:15:47;102741.00;;;31.10
20736;BMP180;10528;52.124;5.196;2022-07-17T12:18:27;102730.00;;;31.10
20736;BMP180;10528;52.124;5.196;2022-07-17T12:21:03;102725.00;;;31.10
20736;BMP180;10528;52.124;5.196;2022-07-17T12:23:38;102732.00;;;31.10
20736;BMP180;10528;52.124;5.196;2022-07-17T12:26:15;102728.00;;;31.10
20736;BMP180;10528;52.124;5.196;2022-07-17T12:28:46;102726.00;;;31.10
20736;BMP180;10528;52.124;5.196;2022-07-17T12:31:13;102727.00;;;31.20
20736;BMP180;10528;52.124;5.196;2022-07-17T12:33:42;102717.00;;;31.20
20736;BMP180;10528;52.124;5.196;2022-07-17T12:36:09;102714.00;;;31.20
20736;BMP180;10528;52.124;5.196;2022-07-17T12:38:36;102718.00;;;31.20
20736;BMP180;10528;52.124;5.196;2022-07-17T12:41:03;102714.00;;;31.20
20736;BMP180;10528;52.124;5.196;2022-07-17T12:43:31;102717.00;;;31.20
20736;BMP180;10528;52.124;5.196;2022-07-17T12:45:58;102721.00;;;31.20
20736;BMP180;10528;52.124;5.196;2022-07-17T12:48:36;102726.00;;;31.20
20736;BMP180;10528;52.124;5.196;2022-07-17T12:51:07;102718.00;;;31.20
20736;BMP180;10528;52.124;5.196;2022-07-17T12:53:34;102721.00;;;31.20
20736;BMP180;10528;52.124;5.196;2022-07-17T12:56:03;102717.00;;;31.10
20736;BMP180;10528;52.124;5.196;2022-07-17T12:58:30;102717.00;;;31.10
20736;BMP180;10528;52.124;5.196;2022-07-17T13:00:58;102714.00;;;31.10
20736;BMP180;10528;52.124;5.196;2022-07-17T13:03:25;102716.00;;;31.10
20736;BMP180;10528;52.124;5.196;2022-07-17T13:05:53;102715.00;;;31.10
20736;BMP180;10528;52.124;5.196;2022-07-17T13:08:20;102703.00;;;31.00
20736;BMP180;10528;52.124;5.196;2022-07-17T13:10:47;102699.00;;;31.10
20736;BMP180;10528;52.124;5.196;2022-07-17T13:13:13;102694.00;;;31.10
20736;BMP180;10528;52.124;5.196;2022-07-17T13:15:41;102695.00;;;31.10
20736;BMP180;10528;52.124;5.196;2022-07-17T13:18:08;102687.00;;;31.10
20736;BMP180;10528;52.124;5.196;2022-07-17T13:20:35;102687.00;;;31.10
20736;BMP180;10528;52.124;5.196;2022-07-17T13:23:02;102678.00;;;31.10
20736;BMP180;10528;52.124;5.196;2022-07-17T13:25:30;102671.00;;;31.20
20736;BMP180;10528;52.124;5.196;2022-07-17T13:27:57;102664.00;;;31.10
20736;BMP180;10528;52.124;5.196;2022-07-17T13:30:24;102665.00;;;31.20
20736;BMP180;10528;52.124;5.196;2022-07-17T13:32:51;102653.00;;;31.10
20736;BMP180;10528;52.124;5.196;2022-07-17T13:35:20;102656.00;;;31.10
20736;BMP180;10528;52.124;5.196;2022-07-17T13:37:47;102648.00;;;31.10
20736;BMP180;10528;52.124;5.196;2022-07-17T13:40:14;102653.00;;;31.10
20736;BMP180;10528;52.124;5.196;2022-07-17T13:42:41;102649.00;;;31.10
20736;BMP180;10528;52.124;5.196;2022-07-17T13:45:08;102651.00;;;31.10
20736;BMP180;10528;52.124;5.196;2022-07-17T13:47:35;102652.00;;;31.10
20736;BMP180;10528;52.124;5.196;2022-07-17T13:50:04;102644.00;;;31.10
20736;BMP180;10528;52.124;5.196;2022-07-17T13:52:39;102642.00;;;31.10
20736;BMP180;10528;52.124;5.196;2022-07-17T13:55:07;102632.00;;;31.10
20736;BMP180;10528;52.124;5.196;2022-07-17T13:57:54;102639.00;;;31.10
20736;BMP180;10528;52.124;5.196;2022-07-17T14:00:21;102633.00;;;31.10
20736;BMP180;10528;52.124;5.196;2022-07-17T14:02:48;102627.00;;;31.10
20736;BMP180;10528;52.124;5.196;2022-07-17T14:05:15;102628.00;;;31.10
20736;BMP180;10528;52.124;5.196;2022-07-17T14:07:42;102631.00;;;31.10
20736;BMP180;10528;52.124;5.196;2022-07-17T14:10:10;102623.00;;;31.10